KRND

Randolph AFB Airport

Universal City, Texas, USA
METAR KRND 182056Z AUTO 16009KT 10SM CLR 37/15 A2993 RMK AO2 SLP125 T03690153 57029
Observed Flight Rules
Aug-18 @ 20:56 UTC (56 minutes ago) Visual Flight Rules
Wind Visibility Clouds
160° at 9 knots 10 miles
  • Clear skies
Temperatures Readings
Current 37°C / 99°F
Dewpoint 15°C / 59°F
Humidity 27%
Altimeter 29.93" Hg
Pressure 1012.5 hPa
Elevation 232
METAR KRND 182056Z AUTO 16009KT 10SM CLR 37/15 A2993 RMK AO2 SLP125 T03690153 57029
Observed Flight Rules
Aug-18 @ 20:56 UTC
(56 minutes ago)
VFR
Wind Visibility
160° at 9 knots 10 miles
Clouds
  • Clear skies
Temperature Dewpoint
37°C / 99°F 15°C / 59°F
Humidity Altimeter Pressure
27% 29.93" Hg 1012.5 hPa